createdAt,value
2023-03-12T00:00:11.149Z,99590.78
2023-03-12T00:00:27.007Z,99596.56
2023-03-12T00:00:43.597Z,99604.63
2023-03-12T00:00:57.621Z,99605.56
2023-03-12T00:01:17.808Z,99593.28
2023-03-12T00:01:35.020Z,99592.28
2023-03-12T00:01:50.582Z,99591.47
2023-03-12T00:02:03.773Z,99603.78
2023-03-12T00:02:16.875Z,99587.16
2023-03-12T00:02:33.806Z,99598.38
2023-03-12T00:02:46.705Z,99600.19
2023-03-12T00:02:59.427Z,99595.91
2023-03-12T00:03:20.055Z,99595.91
2023-03-12T00:03:35.960Z,99602.94
2023-03-12T00:03:51.072Z,99593.28
2023-03-12T00:04:06.386Z,99609.72
2023-03-12T00:04:20.542Z,99612.34
2023-03-12T00:04:38.103Z,99609.72
2023-03-12T00:04:55.715Z,99600.19
2023-03-12T00:05:09.586Z,99602.00
2023-03-12T00:05:24.189Z,99606.44
2023-03-12T00:05:40.038Z,99615.16
2023-03-12T00:05:53.140Z,99602.81
2023-03-12T00:06:10.824Z,99614.31
2023-03-12T00:06:28.896Z,99614.31
2023-03-12T00:06:40.668Z,99611.81
2023-03-12T00:06:55.011Z,99613.63
2023-03-12T00:07:07.801Z,99626.63
2023-03-12T00:07:20.088Z,99610.84
2023-03-12T00:07:33.950Z,99613.47
2023-03-12T00:07:47.778Z,99616.09
2023-03-12T00:08:02.485Z,99618.91
2023-03-12T00:08:15.872Z,99617.09
2023-03-12T00:08:29.506Z,99606.56
2023-03-12T00:08:42.048Z,99614.47
2023-03-12T00:08:57.129Z,99602.44
2023-03-12T00:09:10.988Z,99610.84
2023-03-12T00:09:24.642Z,99617.91
2023-03-12T00:09:38.837Z,99618.72
2023-03-12T00:09:51.426Z,99613.63
2023-03-12T00:10:04.642Z,99617.91
2023-03-12T00:10:17.545Z,99618.03
2023-03-12T00:10:30.043Z,99617.91
2023-03-12T00:10:42.838Z,99617.91
2023-03-12T00:10:55.152Z,99623.16
2023-03-12T00:11:08.709Z,99619.72
2023-03-12T00:11:22.279Z,99610.59
2023-03-12T00:11:37.155Z,99622.34
2023-03-12T00:11:50.140Z,99614.59
2023-03-12T00:12:02.763Z,99617.22
2023-03-12T00:12:14.952Z,99619.84
2023-03-12T00:12:29.429Z,99626.78
2023-03-12T00:12:42.115Z,99624.16
2023-03-12T00:12:55.815Z,99621.66
2023-03-12T00:13:08.762Z,99619.84
2023-03-12T00:13:21.181Z,99612.78
2023-03-12T00:13:34.124Z,99606.69
2023-03-12T00:13:50.160Z,99617.22
2023-03-12T00:14:02.063Z,99613.78
2023-03-12T00:14:14.364Z,99613.09
2023-03-12T00:14:27.032Z,99615.41
2023-03-12T00:14:39.762Z,99625.13
2023-03-12T00:14:51.877Z,99615.41
2023-03-12T00:15:04.901Z,99620.84
2023-03-12T00:15:18.898Z,99618.03
2023-03-12T00:15:31.604Z,99623.47
2023-03-12T00:15:43.642Z,99622.47
2023-03-12T00:15:56.133Z,99623.47
2023-03-12T00:16:10.581Z,99623.31
2023-03-12T00:16:24.257Z,99614.59
2023-03-12T00:16:36.828Z,99621.53
2023-03-12T00:16:51.949Z,99620.69
2023-03-12T00:17:04.654Z,99617.22
2023-03-12T00:17:18.334Z,99617.22
2023-03-12T00:17:32.285Z,99624.16
2023-03-12T00:17:55.533Z,99622.34
2023-03-12T00:18:07.665Z,99628.44
2023-03-12T00:18:22.309Z,99624.16
2023-03-12T00:18:36.046Z,99624.97
2023-03-12T00:18:49.883Z,99621.53
2023-03-12T00:19:03.104Z,99617.09
2023-03-12T00:19:16.284Z,99619.72
2023-03-12T00:19:29.344Z,99618.72
2023-03-12T00:19:41.946Z,99618.72
2023-03-12T00:19:55.339Z,99617.09
2023-03-12T00:20:08.431Z,99624.00
2023-03-12T00:20:22.463Z,99624.00
2023-03-12T00:20:34.785Z,99618.72
2023-03-12T00:20:55.146Z,99618.72
2023-03-12T00:21:09.308Z,99617.91
2023-03-12T00:21:24.084Z,99624.00
2023-03-12T00:21:36.915Z,99619.59
2023-03-12T00:21:55.408Z,99623.16
2023-03-12T00:22:09.588Z,99621.34
2023-03-12T00:22:22.273Z,99628.56
2023-03-12T00:22:36.199Z,99629.25
2023-03-12T00:22:50.577Z,99618.91
2023-03-12T00:23:05.069Z,99624.84
2023-03-12T00:23:18.920Z,99628.44
2023-03-12T00:23:33.783Z,99626.63
2023-03-12T00:23:49.025Z,99626.78
2023-03-12T00:24:02.076Z,99628.56
2023-03-12T00:24:14.229Z,99632.75
2023-03-12T00:24:27.845Z,99625.81
2023-03-12T00:24:45.760Z,99617.78
2023-03-12T00:24:58.567Z,99622.34
2023-03-12T00:25:14.895Z,99631.06
2023-03-12T00:25:28.558Z,99626.63
2023-03-12T00:25:45.547Z,99623.31
2023-03-12T00:26:02.765Z,99628.72
2023-03-12T00:26:17.464Z,99627.75
2023-03-12T00:26:31.546Z,99630.25
2023-03-12T00:26:48.079Z,99626.78
2023-03-12T00:27:00.852Z,99631.38
2023-03-12T00:27:15.015Z,99638.13
2023-03-12T00:27:28.842Z,99644.22
2023-03-12T00:27:44.344Z,99639.25
2023-03-12T00:27:59.263Z,99639.25
2023-03-12T00:28:15.806Z,99642.56
2023-03-12T00:28:30.870Z,99640.63
2023-03-12T00:28:47.189Z,99639.78
2023-03-12T00:29:09.076Z,99640.06
2023-03-12T00:29:26.644Z,99638.94
2023-03-12T00:29:39.684Z,99651.28
2023-03-12T00:29:52.284Z,99646.03
2023-03-12T00:30:08.256Z,99646.97
2023-03-12T00:30:21.663Z,99648.78
2023-03-12T00:30:33.479Z,99640.91
2023-03-12T00:30:48.568Z,99645.19
2023-03-12T00:31:05.890Z,99647.97
2023-03-12T00:31:22.746Z,99643.41
2023-03-12T00:32:11.897Z,99652.09
2023-03-12T00:32:26.758Z,99652.25
2023-03-12T00:32:45.055Z,99645.19
2023-03-12T00:32:59.571Z,99657.38
2023-03-12T00:33:12.229Z,99651.41
2023-03-12T00:33:38.946Z,99647.97
2023-03-12T00:33:55.150Z,99656.69
2023-03-12T00:34:12.131Z,99651.28
2023-03-12T00:34:25.305Z,99645.34
2023-03-12T00:34:51.452Z,99653.91
2023-03-12T00:35:08.258Z,99656.53
2023-03-12T00:35:35.396Z,99643.84
2023-03-12T00:35:58.120Z,99651.41
2023-03-12T00:36:10.750Z,99652.25
2023-03-12T00:36:25.862Z,99653.91
2023-03-12T00:36:38.364Z,99656.53
2023-03-12T00:36:51.962Z,99657.50
2023-03-12T00:37:06.402Z,99653.09
2023-03-12T00:37:18.806Z,99656.41
2023-03-12T00:37:31.874Z,99652.09
2023-03-12T00:37:46.375Z,99659.31
2023-03-12T00:37:58.915Z,99656.53
2023-03-12T00:38:12.772Z,99659.19
2023-03-12T00:38:25.384Z,99658.34
2023-03-12T00:38:39.916Z,99653.09
2023-03-12T00:38:54.742Z,99656.53
2023-03-12T00:39:08.770Z,99651.28
2023-03-12T00:39:21.347Z,99658.19
2023-03-12T00:39:43.126Z,99663.44
2023-03-12T00:39:56.504Z,99662.50
2023-03-12T00:40:09.984Z,99660.00
2023-03-12T00:40:24.503Z,99661.69
2023-03-12T00:40:38.947Z,99670.38
2023-03-12T00:40:53.189Z,99658.06
2023-03-12T00:41:12.544Z,99663.31
2023-03-12T00:41:29.553Z,99667.59
2023-03-12T00:41:47.888Z,99665.13
2023-03-12T00:42:02.956Z,99663.31
2023-03-12T00:42:16.834Z,99668.56
2023-03-12T00:42:32.887Z,99662.50
2023-03-12T00:42:53.545Z,99670.38
2023-03-12T00:43:09.851Z,99656.41
2023-03-12T00:43:29.375Z,99662.31
2023-03-12T00:43:41.985Z,99662.50
2023-03-12T00:43:54.989Z,99657.22
2023-03-12T00:44:12.260Z,99668.56
2023-03-12T00:44:27.009Z,99668.56
2023-03-12T00:44:41.342Z,99665.94
2023-03-12T00:44:53.933Z,99668.56
2023-03-12T00:45:08.209Z,99677.97
2023-03-12T00:45:20.861Z,99656.41
2023-03-12T00:45:33.175Z,99664.97
2023-03-12T00:45:46.364Z,99669.25
2023-03-12T00:46:00.608Z,99668.44
2023-03-12T00:46:14.150Z,99668.44
2023-03-12T00:46:29.682Z,99670.09
2023-03-12T00:46:43.243Z,99664.69
2023-03-12T00:47:01.762Z,99663.00
2023-03-12T00:47:14.834Z,99664.81
2023-03-12T00:47:30.246Z,99668.28
2023-03-12T00:47:48.379Z,99672.59
2023-03-12T00:48:02.528Z,99658.59
2023-03-12T00:48:18.265Z,99666.50
2023-03-12T00:48:30.552Z,99664.69
2023-03-12T00:48:43.008Z,99660.25
2023-03-12T00:49:04.453Z,99663.31
2023-03-12T00:49:19.194Z,99673.53
2023-03-12T00:49:37.637Z,99672.44
2023-03-12T00:49:58.870Z,99671.59
2023-03-12T00:50:13.445Z,99682.81
2023-03-12T00:50:29.325Z,99661.22
2023-03-12T00:50:42.722Z,99677.72
2023-03-12T00:51:00.071Z,99672.44
2023-03-12T00:51:15.263Z,99669.66
2023-03-12T00:51:31.631Z,99672.44
2023-03-12T00:51:44.080Z,99673.28
2023-03-12T00:51:56.993Z,99661.75
2023-03-12T00:52:11.412Z,99671.47
2023-03-12T00:52:27.686Z,99670.63
2023-03-12T00:52:41.728Z,99666.19
2023-03-12T00:52:57.035Z,99665.50
2023-03-12T00:53:11.167Z,99671.47
2023-03-12T00:53:23.939Z,99666.19
2023-03-12T00:53:38.836Z,99665.38
2023-03-12T00:53:51.831Z,99662.75
2023-03-12T00:54:07.435Z,99668.00
2023-03-12T00:54:20.740Z,99662.06
2023-03-12T00:54:33.337Z,99657.63
2023-03-12T00:54:46.066Z,99666.34
2023-03-12T00:55:00.194Z,99661.06
2023-03-12T00:55:16.240Z,99667.19
2023-03-12T00:55:28.734Z,99663.00
2023-03-12T00:55:42.569Z,99663.69
2023-03-12T00:55:59.076Z,99665.38
2023-03-12T00:56:11.191Z,99654.03
2023-03-12T00:56:23.791Z,99655.81
2023-03-12T00:56:36.049Z,99666.50
2023-03-12T00:56:49.751Z,99666.34
2023-03-12T00:57:03.980Z,99653.63
2023-03-12T00:57:16.897Z,99665.50
2023-03-12T00:57:29.975Z,99661.06
2023-03-12T00:57:45.269Z,99661.94
2023-03-12T00:57:59.996Z,99662.88
2023-03-12T00:58:12.720Z,99661.75
2023-03-12T00:58:26.560Z,99667.03
2023-03-12T00:58:39.200Z,99672.28
2023-03-12T00:58:52.978Z,99664.56
2023-03-12T00:59:05.495Z,99671.47
2023-03-12T00:59:18.756Z,99659.13
2023-03-12T00:59:36.701Z,99663.69
2023-03-12T00:59:49.607Z,99657.47
2023-03-12T01:00:02.758Z,99667.19
2023-03-12T01:00:17.276Z,99667.19
2023-03-12T01:00:31.053Z,99670.63
2023-03-12T01:00:46.739Z,99665.22
2023-03-12T01:01:01.229Z,99665.22
2023-03-12T01:01:23.820Z,99668.81
2023-03-12T01:01:37.354Z,99664.38
2023-03-12T01:01:50.431Z,99665.38
2023-03-12T01:02:08.213Z,99668.81
2023-03-12T01:02:23.751Z,99675.72
2023-03-12T01:02:40.062Z,99675.91
2023-03-12T01:02:59.293Z,99671.47
2023-03-12T01:03:11.625Z,99681.00
2023-03-12T01:03:24.606Z,99673.97
2023-03-12T01:03:37.286Z,99675.72
2023-03-12T01:03:52.973Z,99669.81
2023-03-12T01:04:06.859Z,99675.72
2023-03-12T01:04:25.575Z,99681.16
2023-03-12T01:04:41.913Z,99677.53
2023-03-12T01:04:54.203Z,99668.81
2023-03-12T01:05:12.595Z,99681.16
2023-03-12T01:05:30.805Z,99677.72
2023-03-12T01:05:46.023Z,99685.59
2023-03-12T01:05:59.180Z,99674.22
2023-03-12T01:06:14.770Z,99672.59
2023-03-12T01:06:27.472Z,99672.44
2023-03-12T01:06:40.065Z,99671.59
2023-03-12T01:06:55.381Z,99681.28
2023-03-12T01:07:10.296Z,99676.03
2023-03-12T01:07:22.942Z,99674.22
2023-03-12T01:07:36.762Z,99673.28
2023-03-12T01:07:55.435Z,99678.66
2023-03-12T01:08:12.125Z,99675.22
2023-03-12T01:08:25.174Z,99671.59
2023-03-12T01:08:38.860Z,99666.50
2023-03-12T01:08:54.981Z,99674.38
2023-03-12T01:09:09.231Z,99676.03
2023-03-12T01:09:21.576Z,99672.59
2023-03-12T01:09:34.573Z,99675.22
2023-03-12T01:09:48.861Z,99669.94
2023-03-12T01:10:02.592Z,99671.75
2023-03-12T01:10:19.076Z,99674.38
2023-03-12T01:10:32.997Z,99675.22
2023-03-12T01:10:47.128Z,99672.59
2023-03-12T01:11:03.051Z,99675.22
2023-03-12T01:11:18.492Z,99671.06
2023-03-12T01:11:31.817Z,99670.78
2023-03-12T01:11:49.492Z,99670.91
2023-03-12T01:12:02.883Z,99668.97
2023-03-12T01:12:15.942Z,99672.72
2023-03-12T01:12:33.761Z,99666.50
2023-03-12T01:12:51.264Z,99669.94
2023-03-12T01:13:04.694Z,99676.03
2023-03-12T01:13:18.051Z,99675.22
2023-03-12T01:13:33.745Z,99674.22
2023-03-12T01:13:46.723Z,99662.31
2023-03-12T01:14:00.268Z,99672.59
2023-03-12T01:14:16.204Z,99672.72
2023-03-12T01:14:32.665Z,99674.38
2023-03-12T01:14:46.027Z,99664.97
2023-03-12T01:15:02.658Z,99664.13
2023-03-12T01:15:17.271Z,99673.53
2023-03-12T01:15:30.533Z,99664.13
2023-03-12T01:15:43.856Z,99681.59
2023-03-12T01:15:57.725Z,99664.97
2023-03-12T01:16:10.994Z,99671.06
2023-03-12T01:16:23.421Z,99682.56
2023-03-12T01:16:36.365Z,99677.28
2023-03-12T01:16:52.462Z,99666.94
2023-03-12T01:17:10.159Z,99672.84
2023-03-12T01:17:22.651Z,99676.47
2023-03-12T01:17:35.196Z,99672.34
2023-03-12T01:17:49.624Z,99674.66
2023-03-12T01:18:21.636Z,99675.09
2023-03-12T01:18:37.390Z,99674.97
2023-03-12T01:18:50.619Z,99669.69
2023-03-12T01:19:06.779Z,99674.97
2023-03-12T01:19:19.923Z,99682.03
2023-03-12T01:19:32.997Z,99679.22
2023-03-12T01:19:48.935Z,99678.53
2023-03-12T01:20:01.674Z,99681.88
2023-03-12T01:20:14.835Z,99678.72
2023-03-12T01:20:27.886Z,99675.91
2023-03-12T01:20:40.248Z,99672.63
2023-03-12T01:20:53.140Z,99678.53
2023-03-12T01:21:06.127Z,99680.34
2023-03-12T01:21:18.834Z,99676.91
2023-03-12T01:21:32.464Z,99675.25
2023-03-12T01:21:44.635Z,99676.91
2023-03-12T01:21:59.482Z,99675.09
2023-03-12T01:22:12.092Z,99674.28
2023-03-12T01:22:29.498Z,99670.00
2023-03-12T01:22:43.171Z,99667.50
2023-03-12T01:22:57.402Z,99667.50
2023-03-12T01:23:11.382Z,99674.41
2023-03-12T01:23:25.868Z,99678.03
2023-03-12T01:23:39.574Z,99673.72
2023-03-12T01:23:51.771Z,99680.78
2023-03-12T01:24:07.097Z,99679.16
2023-03-12T01:24:21.829Z,99674.72
2023-03-12T01:24:34.877Z,99674.84
2023-03-12T01:24:48.372Z,99680.94
2023-03-12T01:25:03.722Z,99675.81
2023-03-12T01:25:17.781Z,99674.03
2023-03-12T01:25:29.879Z,99678.31
2023-03-12T01:25:42.677Z,99679.28
2023-03-12T01:25:54.782Z,99678.47
2023-03-12T01:26:09.015Z,99670.00
2023-03-12T01:26:26.057Z,99677.63
2023-03-12T01:26:39.921Z,99677.63
2023-03-12T01:27:11.813Z,99681.22
2023-03-12T01:27:25.017Z,99684.84
2023-03-12T01:27:39.642Z,99685.78
2023-03-12T01:27:51.902Z,99680.53
2023-03-12T01:28:05.076Z,99680.53
2023-03-12T01:28:17.977Z,99684.97
2023-03-12T01:28:30.468Z,99677.22
2023-03-12T01:28:46.302Z,99677.50
2023-03-12T01:28:59.392Z,99681.53
2023-03-12T01:29:11.897Z,99684.16
2023-03-12T01:29:24.675Z,99687.59
2023-03-12T01:29:37.009Z,99680.00
2023-03-12T01:29:49.022Z,99682.47
2023-03-12T01:30:01.710Z,99681.66
2023-03-12T01:30:14.389Z,99698.25
2023-03-12T01:30:27.364Z,99686.91
2023-03-12T01:30:43.638Z,99681.81
2023-03-12T01:30:55.938Z,99678.34
2023-03-12T01:31:09.618Z,99694.81
2023-03-12T01:31:23.300Z,99686.09
2023-03-12T01:31:36.620Z,99687.91
2023-03-12T01:31:48.769Z,99677.38
2023-03-12T01:32:00.914Z,99688.72
2023-03-12T01:32:13.621Z,99685.28
2023-03-12T01:32:26.941Z,99683.59
2023-03-12T01:32:41.331Z,99682.63
2023-03-12T01:32:54.109Z,99681.81
2023-03-12T01:33:08.632Z,99688.72
2023-03-12T01:33:23.203Z,99690.38
2023-03-12T01:33:35.622Z,99686.09
2023-03-12T01:33:50.973Z,99683.47
2023-03-12T01:34:05.562Z,99682.09
2023-03-12T01:34:18.429Z,99683.47
2023-03-12T01:34:30.889Z,99679.31
2023-03-12T01:34:43.293Z,99682.09
2023-03-12T01:34:58.188Z,99681.81
2023-03-12T01:35:13.128Z,99681.13
2023-03-12T01:35:27.074Z,99682.91
2023-03-12T01:35:44.676Z,99681.94
2023-03-12T01:36:00.354Z,99683.75
2023-03-12T01:36:21.101Z,99682.22
2023-03-12T01:36:36.138Z,99684.72
2023-03-12T01:36:48.355Z,99683.06
2023-03-12T01:37:00.822Z,99685.53
2023-03-12T01:37:13.647Z,99688.31
2023-03-12T01:37:25.831Z,99691.78
2023-03-12T01:37:42.179Z,99690.78
2023-03-12T01:37:55.496Z,99678.50
2023-03-12T01:38:14.825Z,99685.53
2023-03-12T01:38:27.616Z,99693.41
2023-03-12T01:38:43.741Z,99688.16
2023-03-12T01:39:00.127Z,99690.66
2023-03-12T01:39:14.754Z,99684.72
2023-03-12T01:39:28.713Z,99688.16
2023-03-12T01:39:48.352Z,99691.66
2023-03-12T01:40:05.892Z,99695.09
2023-03-12T01:40:24.599Z,99685.41
2023-03-12T01:40:39.162Z,99686.38
2023-03-12T01:40:52.962Z,99682.91
2023-03-12T01:41:16.802Z,99683.91
2023-03-12T01:41:32.484Z,99680.28
2023-03-12T01:41:45.619Z,99681.41
2023-03-12T01:41:59.683Z,99683.34
2023-03-12T01:42:15.976Z,99684.72
2023-03-12T01:42:34.045Z,99691.66
2023-03-12T01:42:55.704Z,99690.97
2023-03-12T01:43:26.397Z,99683.06
2023-03-12T01:43:40.784Z,99696.06
2023-03-12T01:43:55.049Z,99693.41
2023-03-12T01:44:14.939Z,99690.78
2023-03-12T01:44:28.485Z,99689.00
2023-03-12T01:44:58.775Z,99689.97
2023-03-12T01:45:59.264Z,99696.91
2023-03-12T01:46:28.056Z,99688.16
2023-03-12T01:46:42.914Z,99687.34
2023-03-12T01:47:01.447Z,99689.28
2023-03-12T01:47:13.754Z,99691.78
2023-03-12T01:47:29.171Z,99685.69
2023-03-12T01:47:43.532Z,99690.09
2023-03-12T01:47:57.241Z,99693.41
2023-03-12T01:48:14.067Z,99691.78
2023-03-12T01:48:27.966Z,99686.66
2023-03-12T01:48:46.766Z,99690.09
2023-03-12T01:49:08.492Z,99687.47
2023-03-12T01:49:24.938Z,99695.38
2023-03-12T01:49:38.600Z,99691.78
2023-03-12T01:49:58.515Z,99687.47
2023-03-12T01:50:14.938Z,99691.91
2023-03-12T01:50:29.350Z,99687.34
2023-03-12T01:50:43.301Z,99687.47
2023-03-12T01:50:55.782Z,99684.03
2023-03-12T01:51:18.652Z,99687.47
2023-03-12T01:51:38.417Z,99688.31
2023-03-12T01:52:00.634Z,99689.97
2023-03-12T01:52:22.856Z,99686.38
2023-03-12T01:52:39.424Z,99688.31
2023-03-12T01:52:53.755Z,99690.97
2023-03-12T01:53:18.410Z,99694.41
2023-03-12T01:53:35.062Z,99693.72
2023-03-12T01:53:59.047Z,99694.53
2023-03-12T01:54:15.983Z,99691.22
2023-03-12T01:54:33.966Z,99697.16
2023-03-12T01:54:53.577Z,99695.53
2023-03-12T01:55:09.518Z,99695.53
2023-03-12T01:55:27.130Z,99695.53
2023-03-12T01:55:40.618Z,99694.53
2023-03-12T01:55:54.003Z,99693.03
2023-03-12T01:56:09.828Z,99691.91
2023-03-12T01:56:28.320Z,99701.75
2023-03-12T01:56:42.998Z,99699.97
2023-03-12T01:56:58.063Z,99697.34
2023-03-12T01:57:17.782Z,99699.97
2023-03-12T01:57:34.794Z,99703.41
2023-03-12T01:57:53.815Z,99704.53
2023-03-12T01:58:09.874Z,99706.88
2023-03-12T01:58:23.783Z,99704.38
2023-03-12T01:58:40.924Z,99705.22
2023-03-12T01:59:00.680Z,99705.22
2023-03-12T01:59:20.008Z,99703.56
2023-03-12T01:59:43.440Z,99698.28
2023-03-12T01:59:59.908Z,99703.84
2023-03-12T02:00:17.973Z,99701.06
2023-03-12T02:00:35.637Z,99707.16
2023-03-12T02:00:49.945Z,99707.97
2023-03-12T02:01:02.691Z,99711.72
2023-03-12T02:01:19.397Z,99707.28
2023-03-12T02:01:38.361Z,99706.31
2023-03-12T02:01:53.425Z,99712.56
2023-03-12T02:02:10.511Z,99714.38
2023-03-12T02:02:24.641Z,99706.59
2023-03-12T02:02:37.996Z,99710.91
2023-03-12T02:03:03.200Z,99714.38
2023-03-12T02:03:24.300Z,99709.22
2023-03-12T02:03:37.659Z,99714.50
2023-03-12T02:03:58.865Z,99707.59
2023-03-12T02:04:13.286Z,99717.94
2023-03-12T02:04:38.938Z,99705.78
2023-03-12T02:04:57.471Z,99713.53
2023-03-12T02:05:18.372Z,99717.94
2023-03-12T02:05:38.440Z,99722.25
2023-03-12T02:05:53.908Z,99712.69
2023-03-12T02:06:11.855Z,99704.28
2023-03-12T02:06:30.433Z,99710.91
2023-03-12T02:06:51.457Z,99715.47
2023-03-12T02:07:07.625Z,99707.03
2023-03-12T02:07:23.675Z,99719.75
2023-03-12T02:07:37.923Z,99711.03
2023-03-12T02:07:52.047Z,99719.75
2023-03-12T02:08:06.011Z,99711.03
2023-03-12T02:08:20.525Z,99715.47
2023-03-12T02:08:38.028Z,99720.75
2023-03-12T02:08:59.951Z,99718.09
2023-03-12T02:09:19.397Z,99715.47
2023-03-12T02:09:37.325Z,99719.75
2023-03-12T02:09:49.893Z,99721.56
2023-03-12T02:10:04.823Z,99721.56
2023-03-12T02:10:17.932Z,99731.25
2023-03-12T02:10:33.248Z,99720.75
2023-03-12T02:10:46.439Z,99720.03
2023-03-12T02:10:59.478Z,99724.31
2023-03-12T02:11:12.384Z,99717.69
2023-03-12T02:11:26.677Z,99721.84
2023-03-12T02:11:39.884Z,99731.38
2023-03-12T02:11:53.994Z,99726.25
2023-03-12T02:12:10.651Z,99726.25
2023-03-12T02:12:25.182Z,99725.31
2023-03-12T02:12:38.917Z,99726.25
2023-03-12T02:12:52.044Z,99724.63
2023-03-12T02:13:06.942Z,99725.44
2023-03-12T02:13:19.490Z,99732.50
2023-03-12T02:13:38.452Z,99730.81
2023-03-12T02:13:53.657Z,99729.06
2023-03-12T02:14:07.255Z,99727.38
2023-03-12T02:14:20.769Z,99723.91
2023-03-12T02:14:33.933Z,99733.47
2023-03-12T02:14:49.421Z,99732.63
2023-03-12T02:15:07.358Z,99726.69
2023-03-12T02:15:23.543Z,99723.91
2023-03-12T02:15:39.213Z,99722.28
2023-03-12T02:16:03.799Z,99731.94
2023-03-12T02:16:19.463Z,99727.66
2023-03-12T02:16:33.282Z,99733.47
2023-03-12T02:16:46.375Z,99734.31
2023-03-12T02:16:59.546Z,99719.78
2023-03-12T02:17:15.589Z,99724.06
2023-03-12T02:17:28.728Z,99731.00
2023-03-12T02:17:45.764Z,99731.00
2023-03-12T02:17:58.947Z,99736.25
2023-03-12T02:18:16.368Z,99730.16
2023-03-12T02:18:29.568Z,99730.16
2023-03-12T02:18:46.757Z,99726.84
2023-03-12T02:19:04.643Z,99736.38
2023-03-12T02:19:24.582Z,99739.81
2023-03-12T02:19:45.028Z,99732.09
2023-03-12T02:20:04.699Z,99730.44
2023-03-12T02:20:23.888Z,99730.44
2023-03-12T02:20:43.721Z,99734.88
2023-03-12T02:21:04.585Z,99734.72
2023-03-12T02:21:24.911Z,99736.50
2023-03-12T02:21:39.709Z,99733.06
2023-03-12T02:21:53.568Z,99727.78
2023-03-12T02:22:08.844Z,99727.97
2023-03-12T02:22:24.006Z,99734.03
2023-03-12T02:22:40.865Z,99742.88
2023-03-12T02:23:01.083Z,99735.97
2023-03-12T02:23:21.668Z,99733.34
2023-03-12T02:23:40.372Z,99740.53
2023-03-12T02:24:00.861Z,99739.56
2023-03-12T02:24:22.118Z,99735.28
2023-03-12T02:24:39.719Z,99736.22
2023-03-12T02:24:59.774Z,99732.78
2023-03-12T02:25:25.085Z,99732.09
2023-03-12T02:25:42.117Z,99731.28
2023-03-12T02:25:55.819Z,99728.94
2023-03-12T02:26:09.884Z,99736.66
2023-03-12T02:26:27.475Z,99732.38
2023-03-12T02:26:40.961Z,99734.19
2023-03-12T02:26:55.355Z,99732.50
2023-03-12T02:27:10.300Z,99734.19
2023-03-12T02:27:24.980Z,99735.13
2023-03-12T02:27:39.849Z,99734.31
2023-03-12T02:27:53.357Z,99732.69
2023-03-12T02:28:09.291Z,99732.50
2023-03-12T02:28:28.953Z,99735.44
2023-03-12T02:28:48.381Z,99737.94
2023-03-12T02:29:04.575Z,99737.06
2023-03-12T02:29:20.043Z,99733.78
2023-03-12T02:29:36.005Z,99732.09
2023-03-12T02:29:48.931Z,99743.44
2023-03-12T02:30:02.753Z,99741.81
2023-03-12T02:30:20.189Z,99742.63
2023-03-12T02:30:35.675Z,99742.75
2023-03-12T02:30:58.541Z,99739.31
2023-03-12T02:31:14.254Z,99741.09
2023-03-12T02:31:32.205Z,99735.16
2023-03-12T02:31:51.243Z,99738.75
2023-03-12T02:32:04.506Z,99738.59
2023-03-12T02:32:23.513Z,99736.97
2023-03-12T02:32:39.590Z,99741.22
2023-03-12T02:32:53.473Z,99738.06
2023-03-12T02:33:10.564Z,99744.16
2023-03-12T02:33:23.629Z,99738.06
2023-03-12T02:33:36.033Z,99746.91
2023-03-12T02:33:49.153Z,99742.34
2023-03-12T02:34:01.778Z,99739.84
2023-03-12T02:34:14.927Z,99742.63
2023-03-12T02:34:27.071Z,99745.97
2023-03-12T02:34:39.922Z,99743.34
2023-03-12T02:34:57.019Z,99748.72
2023-03-12T02:35:13.745Z,99743.47
2023-03-12T02:35:29.179Z,99741.81
2023-03-12T02:35:42.968Z,99742.75
2023-03-12T02:35:55.809Z,99742.75
2023-03-12T02:36:10.693Z,99747.19
2023-03-12T02:36:23.913Z,99743.75
2023-03-12T02:36:37.380Z,99743.75
2023-03-12T02:36:52.507Z,99738.50
2023-03-12T02:37:04.679Z,99739.31
2023-03-12T02:37:19.597Z,99745.53
2023-03-12T02:37:32.247Z,99747.31
2023-03-12T02:37:53.781Z,99748.16
2023-03-12T02:38:33.893Z,99744.16
2023-03-12T02:38:47.910Z,99747.47
2023-03-12T02:39:02.773Z,99754.50
2023-03-12T02:39:15.650Z,99749.25
2023-03-12T02:39:28.565Z,99745.69
2023-03-12T02:39:49.285Z,99749.13
2023-03-12T02:40:09.908Z,99750.94
2023-03-12T02:40:29.691Z,99743.31
2023-03-12T02:40:48.184Z,99747.47
2023-03-12T02:41:03.931Z,99754.50
2023-03-12T02:41:20.806Z,99750.13
2023-03-12T02:41:37.426Z,99757.13
2023-03-12T02:41:54.209Z,99750.25
2023-03-12T02:42:09.228Z,99743.59
2023-03-12T02:42:26.527Z,99749.41
2023-03-12T02:42:40.772Z,99750.25
2023-03-12T02:42:54.909Z,99747.75
2023-03-12T02:43:09.946Z,99745.28
2023-03-12T02:43:24.199Z,99753.97
2023-03-12T02:43:40.127Z,99756.59
2023-03-12T02:44:00.179Z,99753.16
2023-03-12T02:44:16.830Z,99757.56
2023-03-12T02:44:33.265Z,99752.47
2023-03-12T02:44:46.619Z,99752.47
2023-03-12T02:44:59.675Z,99759.34
2023-03-12T02:45:11.867Z,99766.41
2023-03-12T02:45:25.943Z,99758.41
2023-03-12T02:45:40.723Z,99765.31
2023-03-12T02:45:54.715Z,99762.81
2023-03-12T02:46:10.369Z,99762.69
2023-03-12T02:46:23.468Z,99757.44
2023-03-12T02:46:39.536Z,99759.22
2023-03-12T02:46:55.817Z,99757.56
2023-03-12T02:47:09.288Z,99759.34
2023-03-12T02:47:22.571Z,99761.97
2023-03-12T02:47:35.320Z,99759.63
2023-03-12T02:47:47.929Z,99757.13
2023-03-12T02:48:00.189Z,99758.81
2023-03-12T02:48:16.584Z,99763.91
2023-03-12T02:48:31.240Z,99764.06
2023-03-12T02:48:43.585Z,99763.09
2023-03-12T02:48:56.323Z,99761.44
2023-03-12T02:49:10.646Z,99760.59
2023-03-12T02:49:27.753Z,99763.22
2023-03-12T02:49:40.738Z,99768.47
2023-03-12T02:49:53.052Z,99766.00
2023-03-12T02:50:07.762Z,99764.31
2023-03-12T02:50:20.676Z,99766.97
2023-03-12T02:50:33.375Z,99763.38
2023-03-12T02:50:45.515Z,99760.06
2023-03-12T02:50:57.997Z,99764.31
2023-03-12T02:51:10.844Z,99762.69
2023-03-12T02:51:24.285Z,99758.38
2023-03-12T02:51:36.906Z,99763.63
2023-03-12T02:51:50.218Z,99760.31
2023-03-12T02:52:02.917Z,99769.88
2023-03-12T02:52:15.947Z,99759.34
2023-03-12T02:52:29.086Z,99765.56
2023-03-12T02:52:43.956Z,99762.13
2023-03-12T02:52:56.878Z,99762.94
2023-03-12T02:53:09.888Z,99760.31
2023-03-12T02:53:23.892Z,99768.19
2023-03-12T02:53:38.559Z,99763.91
2023-03-12T02:53:52.320Z,99758.94
2023-03-12T02:54:08.119Z,99765.03
2023-03-12T02:54:22.739Z,99766.66
2023-03-12T02:54:35.467Z,99767.66
2023-03-12T02:54:48.914Z,99765.03
2023-03-12T02:55:03.131Z,99765.28
2023-03-12T02:55:15.085Z,99764.19
2023-03-12T02:55:31.650Z,99766.94
2023-03-12T02:55:44.209Z,99760.72
2023-03-12T02:55:56.945Z,99765.97
2023-03-12T02:56:12.204Z,99760.72
2023-03-12T02:56:27.910Z,99765.97
2023-03-12T02:56:40.806Z,99761.81
2023-03-12T02:56:55.052Z,99759.06
2023-03-12T02:57:13.504Z,99770.41
2023-03-12T02:57:26.556Z,99757.25
2023-03-12T02:57:39.241Z,99754.78
2023-03-12T02:57:54.768Z,99764.31
2023-03-12T02:58:07.495Z,99758.38
2023-03-12T02:58:21.886Z,99756.44
2023-03-12T02:58:36.679Z,99759.06
2023-03-12T02:58:49.091Z,99769.56
2023-03-12T02:59:04.476Z,99766.13
2023-03-12T02:59:21.995Z,99771.38
2023-03-12T02:59:37.708Z,99763.50
2023-03-12T02:59:52.522Z,99755.88
2023-03-12T03:00:08.028Z,99765.28
2023-03-12T03:00:22.311Z,99763.63
2023-03-12T03:00:37.455Z,99763.63